createdAt,value
2018-11-20T00:03:18.476Z,1.22
2018-11-20T00:09:13.544Z,1.02
2018-11-20T00:15:08.500Z,0.68
2018-11-20T00:21:03.574Z,0.7
2018-11-20T00:26:58.559Z,0.69
2018-11-20T00:32:53.560Z,0.9
2018-11-20T00:38:48.523Z,0.85
2018-11-20T00:44:43.534Z,0.84
2018-11-20T00:50:38.534Z,0.69
2018-11-20T00:56:33.550Z,0.68
2018-11-20T01:02:28.570Z,0.69
2018-11-20T01:08:23.564Z,0.6
2018-11-20T01:14:18.539Z,0.64
2018-11-20T01:20:13.571Z,0.89
2018-11-20T01:26:08.566Z,1.1
2018-11-20T01:32:03.599Z,1.37
2018-11-20T01:37:58.590Z,0.99
2018-11-20T01:43:53.576Z,0.95
2018-11-20T01:49:48.589Z,0.6
2018-11-20T01:55:43.593Z,0.9
2018-11-20T02:01:38.596Z,0.6
2018-11-20T02:07:33.606Z,0.63
2018-11-20T02:13:28.589Z,0.6
2018-11-20T02:19:23.619Z,1.03
2018-11-20T02:25:18.601Z,0.63
2018-11-20T02:31:13.639Z,0.6
2018-11-20T02:37:08.632Z,0.61
2018-11-20T02:43:03.640Z,0.7
2018-11-20T02:48:58.642Z,0.61
2018-11-20T02:54:53.627Z,0.7
2018-11-20T03:00:48.654Z,0.6
2018-11-20T03:06:43.652Z,0.62
2018-11-20T03:12:38.657Z,0.6
2018-11-20T03:18:33.660Z,0.61
2018-11-20T03:24:28.658Z,1.34
2018-11-20T03:30:23.658Z,0.73
2018-11-20T03:36:18.782Z,0.94
2018-11-20T03:42:13.677Z,0.6
2018-11-20T03:48:08.671Z,0.7
2018-11-20T03:54:03.682Z,0.6
2018-11-20T03:59:58.696Z,0.76
2018-11-20T04:05:53.673Z,0.77
2018-11-20T04:11:48.700Z,0.83
2018-11-20T04:17:43.751Z,0.83
2018-11-20T04:23:38.700Z,0.62
2018-11-20T04:29:33.752Z,0.78
2018-11-20T04:35:28.696Z,0.65
2018-11-20T04:41:23.891Z,0.63
2018-11-20T04:47:18.721Z,0.5
2018-11-20T04:53:13.737Z,0.64
2018-11-20T04:59:08.735Z,0.62
2018-11-20T05:05:03.829Z,1.18
2018-11-20T05:10:58.757Z,0.6
2018-11-20T05:16:53.743Z,0.7
2018-11-20T05:22:48.821Z,0.69
2018-11-20T05:28:43.798Z,0.6
2018-11-20T05:34:38.790Z,0.64
2018-11-20T05:40:33.891Z,0.68
2018-11-20T05:46:28.766Z,1
2018-11-20T05:52:23.790Z,0.72
2018-11-20T05:58:18.801Z,0.63
2018-11-20T06:04:13.789Z,0.8
2018-11-20T06:10:08.849Z,0.64
2018-11-20T06:16:03.781Z,0.67
2018-11-20T06:21:58.801Z,1.5
2018-11-20T06:27:53.805Z,0.83
2018-11-20T06:33:48.829Z,0.77
2018-11-20T06:39:43.808Z,0.67
2018-11-20T06:45:38.820Z,0.62
2018-11-20T06:51:33.834Z,0.92
2018-11-20T06:57:28.940Z,0.9
2018-11-20T07:03:23.832Z,1.44
2018-11-20T07:09:18.845Z,0.94
2018-11-20T07:15:13.883Z,0.87
2018-11-20T07:21:08.902Z,0.95
2018-11-20T07:27:03.838Z,0.92
2018-11-20T07:32:58.854Z,2.37
2018-11-20T07:38:53.854Z,2.05
2018-11-20T07:44:48.899Z,3.9
2018-11-20T07:50:43.910Z,4.01
2018-11-20T07:56:38.897Z,1.5
2018-11-20T08:02:33.888Z,1.23
2018-11-20T08:08:28.973Z,0.96
2018-11-20T08:14:23.972Z,2.76
2018-11-20T08:20:18.897Z,1
2018-11-20T08:26:14.148Z,2.35
2018-11-20T08:32:08.904Z,1.03
2018-11-20T08:38:03.938Z,0.82
2018-11-20T08:43:58.905Z,0.87
2018-11-20T08:49:53.931Z,1.77
2018-11-20T08:55:48.929Z,2.55
2018-11-20T09:01:43.937Z,1.62
2018-11-20T09:07:38.954Z,1.64
2018-11-20T09:13:33.943Z,1.13
2018-11-20T09:19:28.943Z,1.4
2018-11-20T09:25:23.984Z,0.95
2018-11-20T09:31:18.966Z,1.14
2018-11-20T09:37:13.944Z,1.19
2018-11-20T09:43:08.966Z,1.35
2018-11-20T09:49:03.970Z,1.23
2018-11-20T09:54:58.988Z,1.46
2018-11-20T10:00:53.989Z,2.37
2018-11-20T10:06:48.997Z,1.26
2018-11-20T10:12:43.986Z,2.11
2018-11-20T10:18:38.995Z,1.23
2018-11-20T10:24:34.057Z,1.37
2018-11-20T10:30:29.001Z,1.63
2018-11-20T10:36:24.017Z,2.03
2018-11-20T10:42:19.062Z,1.5
2018-11-20T10:48:14.014Z,3.3
2018-11-20T10:54:09.033Z,1.62
2018-11-20T11:00:04.067Z,3.5
2018-11-20T11:05:59.049Z,2.13
2018-11-20T11:11:54.145Z,1.59
2018-11-20T11:17:49.067Z,2.4
2018-11-20T11:23:44.031Z,2.13
2018-11-20T11:29:39.071Z,1.7
2018-11-20T11:35:34.047Z,2.39
2018-11-20T11:41:29.056Z,3.07
2018-11-20T11:47:24.073Z,1.33
2018-11-20T11:53:19.086Z,4.27
2018-11-20T11:59:14.064Z,3.03
2018-11-20T12:05:09.066Z,1.98
2018-11-20T12:11:04.136Z,1.63
2018-11-20T12:34:44.093Z,1.53
2018-11-20T13:16:09.114Z,2.74
2018-11-20T13:22:04.142Z,2.72
2018-11-20T13:45:45.614Z,1.82
2018-11-20T14:03:29.176Z,1.91
2018-11-20T14:09:24.172Z,1.62
2018-11-20T14:44:54.223Z,1.4
2018-11-20T16:07:44.260Z,1.51
2018-11-20T17:12:49.313Z,3.97
2018-11-20T18:29:44.484Z,4.15
2018-11-20T18:53:24.451Z,7.55
2018-11-20T19:40:44.454Z,3.67
2018-11-20T20:51:44.500Z,3.4
2018-11-20T23:13:44.639Z,3.2
2018-11-20T23:37:24.642Z,2.62
